Portada
METAR-TAF:

METAR-TAF

Aeroports :

Whyalla, Austràlia

latitud: 33-03-32S, longitud: 137-30-52E, altitud: 12 m

Observació

L'informe es va fer fa 12 minuts, a les 23:30 UTC
Vent 4 kt del Oest/Sud-Oest, variant entre Sud i Oest/Sud-Oest
Temperatura 9°C
Humitat 100%
Pressió 1028 hPa
Visibilitat: 5000 m
Cel cobert a una alçada de 500 ft

METAR: YWHA 122330Z AUTO 24004KT 170V250 5000 // OVC005 09/09 Q1028

Hora: 09:12 (23:42 UTC)


TAF: manca

Observacions i pronòstics meteorològics de més de 4000 aeroports (METAR i TAF).

Les estacions disponibles són els punts grocs i vermells al mapa.

Posi el ratolí al punt desitjat per veure el nom de l'estació.

Feu clic per veure les observacions i els pronòstics meteorològics.

Per canviar el mapa: feu clic els botons verds amb una creu de color negre per apropar; al botó verd amb un guió per allunyar la imatge; o en les fletxes verdes per a mapes adjacents.


METAR-TAF: